createdAt,value
2017-09-30T00:00:38.015Z,12.70
2017-09-30T00:03:06.296Z,12.70
2017-09-30T00:05:33.767Z,12.70
2017-09-30T00:08:01.294Z,12.70
2017-09-30T00:10:28.757Z,12.80
2017-09-30T00:12:56.297Z,12.50
2017-09-30T00:15:23.756Z,12.60
2017-09-30T00:17:51.231Z,12.70
2017-09-30T00:20:18.719Z,12.60
2017-09-30T00:22:46.962Z,12.30
2017-09-30T00:25:14.500Z,12.20
2017-09-30T00:27:41.978Z,12.20
2017-09-30T00:30:09.455Z,12.20
2017-09-30T00:32:36.992Z,12.30
2017-09-30T00:35:04.478Z,12.50
2017-09-30T00:37:31.991Z,12.60
2017-09-30T00:39:59.463Z,12.60
2017-09-30T00:42:26.978Z,12.70
2017-09-30T00:44:55.252Z,12.50
2017-09-30T00:47:23.500Z,12.40
2017-09-30T00:49:51.002Z,12.40
2017-09-30T00:52:18.487Z,12.50
2017-09-30T00:54:45.987Z,12.60
2017-09-30T00:57:14.222Z,12.70
2017-09-30T00:59:41.718Z,12.70
2017-09-30T01:02:09.234Z,12.70
2017-09-30T01:04:36.706Z,12.50
2017-09-30T01:07:04.199Z,12.40
2017-09-30T01:09:31.666Z,12.10
2017-09-30T01:11:59.930Z,11.80
2017-09-30T01:14:27.428Z,11.80
2017-09-30T01:16:54.937Z,11.90
2017-09-30T01:19:22.451Z,11.90
2017-09-30T01:21:49.923Z,12.10
2017-09-30T01:24:17.463Z,12.20
2017-09-30T01:26:44.947Z,12.10
2017-09-30T01:29:12.433Z,11.90
2017-09-30T01:31:39.952Z,11.80
2017-09-30T01:34:07.460Z,11.70
2017-09-30T01:36:34.950Z,11.90
2017-09-30T01:39:03.191Z,11.80
2017-09-30T01:41:30.739Z,11.80
2017-09-30T01:43:58.210Z,12.00
2017-09-30T01:46:25.691Z,12.10
2017-09-30T01:48:53.982Z,12.10
2017-09-30T01:51:21.491Z,12.00
2017-09-30T01:53:48.986Z,12.00
2017-09-30T01:56:17.218Z,12.10
2017-09-30T01:58:44.711Z,12.10
2017-09-30T02:01:14.798Z,12.10
2017-09-30T02:03:42.301Z,12.10
2017-09-30T02:06:10.536Z,12.00
2017-09-30T02:08:38.023Z,12.00
2017-09-30T02:11:05.521Z,11.80
2017-09-30T02:13:33.025Z,11.70
2017-09-30T02:16:00.523Z,11.60
2017-09-30T02:18:28.051Z,11.60
2017-09-30T02:20:55.581Z,11.50
2017-09-30T02:23:23.050Z,11.60
2017-09-30T02:25:50.551Z,11.50
2017-09-30T02:28:18.827Z,11.50
2017-09-30T02:30:47.079Z,11.50
2017-09-30T02:33:14.566Z,11.50
2017-09-30T02:35:42.807Z,11.30
2017-09-30T02:38:10.310Z,11.30
2017-09-30T02:40:38.547Z,11.30
2017-09-30T02:43:06.019Z,11.30
2017-09-30T02:45:33.535Z,11.30
2017-09-30T02:48:01.015Z,11.50
2017-09-30T02:50:28.528Z,11.70
2017-09-30T02:52:56.021Z,11.70
2017-09-30T02:55:23.511Z,11.70
2017-09-30T02:57:51.768Z,11.80
2017-09-30T03:00:19.290Z,11.80
2017-09-30T03:02:46.761Z,11.80
2017-09-30T03:05:14.241Z,11.80
2017-09-30T03:07:41.740Z,11.80
2017-09-30T03:10:09.979Z,11.80
2017-09-30T03:12:37.471Z,11.80
2017-09-30T03:15:05.744Z,11.00
2017-09-30T03:17:33.987Z,11.00
2017-09-30T03:20:01.519Z,11.00
2017-09-30T03:22:29.001Z,11.00
2017-09-30T03:24:56.499Z,10.90
2017-09-30T03:27:24.777Z,10.90
2017-09-30T03:29:53.049Z,10.90
2017-09-30T03:32:20.535Z,10.90
2017-09-30T03:34:48.048Z,11.10
2017-09-30T03:37:15.522Z,11.10
2017-09-30T03:39:42.983Z,11.20
2017-09-30T03:42:11.246Z,11.10
2017-09-30T03:44:38.732Z,11.10
2017-09-30T03:47:06.218Z,10.90
2017-09-30T03:49:33.699Z,11.20
2017-09-30T03:52:01.215Z,11.30
2017-09-30T03:54:28.728Z,11.30
2017-09-30T03:56:56.198Z,11.40
2017-09-30T03:59:23.663Z,11.30
2017-09-30T04:01:51.948Z,11.00
2017-09-30T04:04:20.179Z,10.90
2017-09-30T04:06:47.699Z,10.90
2017-09-30T04:09:16.021Z,10.70
2017-09-30T04:11:43.486Z,10.70
2017-09-30T04:14:10.966Z,10.70
2017-09-30T04:16:38.479Z,10.60
2017-09-30T04:19:05.951Z,10.80
2017-09-30T04:21:33.443Z,11.00
2017-09-30T04:24:00.959Z,11.00
2017-09-30T04:26:28.416Z,11.00
2017-09-30T04:28:55.920Z,11.00
2017-09-30T04:31:24.155Z,11.10
2017-09-30T04:33:51.658Z,11.10
2017-09-30T04:36:19.895Z,10.80
2017-09-30T04:38:47.430Z,10.80
2017-09-30T04:41:14.908Z,10.90
2017-09-30T04:43:42.408Z,11.00
2017-09-30T04:46:09.891Z,11.10
2017-09-30T04:48:37.370Z,11.10
2017-09-30T04:51:04.933Z,11.10
2017-09-30T04:53:32.414Z,11.00
2017-09-30T04:55:59.915Z,11.00
2017-09-30T04:58:28.193Z,11.10
2017-09-30T05:00:56.462Z,11.10
2017-09-30T05:03:24.731Z,11.10
2017-09-30T05:05:52.212Z,11.10
2017-09-30T05:08:20.491Z,10.80
2017-09-30T05:10:48.726Z,10.60
2017-09-30T05:13:16.226Z,10.60
2017-09-30T05:15:43.718Z,10.50
2017-09-30T05:18:11.241Z,10.60
2017-09-30T05:20:39.506Z,10.90
2017-09-30T05:23:07.738Z,11.00
2017-09-30T05:25:35.235Z,11.00
2017-09-30T05:28:02.721Z,11.10
2017-09-30T05:30:30.976Z,10.80
2017-09-30T05:32:59.230Z,10.80
2017-09-30T05:35:26.727Z,10.80
2017-09-30T05:37:54.977Z,11.60
2017-09-30T05:40:23.994Z,11.90
2017-09-30T05:42:52.258Z,11.20
2017-09-30T05:45:19.747Z,11.20
2017-09-30T05:47:47.266Z,11.10
2017-09-30T05:50:14.720Z,10.90
2017-09-30T05:52:42.218Z,11.00
2017-09-30T05:55:09.742Z,11.00
2017-09-30T05:57:37.263Z,11.20
2017-09-30T06:00:04.743Z,11.30
2017-09-30T06:02:32.222Z,11.40
2017-09-30T06:04:59.720Z,11.50
2017-09-30T06:07:27.183Z,11.50
2017-09-30T06:09:54.671Z,11.50
2017-09-30T06:12:22.154Z,11.30
2017-09-30T06:14:49.680Z,11.40
2017-09-30T06:17:17.186Z,11.50
2017-09-30T06:19:45.455Z,11.40
2017-09-30T06:22:13.722Z,11.50
2017-09-30T06:24:41.192Z,11.50
2017-09-30T06:27:09.477Z,11.60
2017-09-30T06:29:37.715Z,11.80
2017-09-30T06:32:05.252Z,11.70
2017-09-30T06:34:32.720Z,11.50
2017-09-30T06:37:00.199Z,11.40
2017-09-30T06:39:27.694Z,11.40
2017-09-30T06:41:55.925Z,11.40
2017-09-30T06:44:23.434Z,11.40
2017-09-30T06:46:50.937Z,11.30
2017-09-30T06:49:18.411Z,11.20
2017-09-30T06:51:45.925Z,11.20
2017-09-30T06:54:13.421Z,11.50
2017-09-30T06:56:40.919Z,12.20
2017-09-30T06:59:09.158Z,12.20
2017-09-30T07:01:36.699Z,12.20
2017-09-30T07:04:04.191Z,12.40
2017-09-30T07:06:31.718Z,12.70
2017-09-30T07:08:59.201Z,12.60
2017-09-30T07:11:26.693Z,12.30
2017-09-30T07:13:54.954Z,12.90
2017-09-30T07:16:22.470Z,12.90
2017-09-30T07:18:49.971Z,13.10
2017-09-30T07:21:18.220Z,13.20
2017-09-30T07:23:45.714Z,13.20
2017-09-30T07:26:13.967Z,13.00
2017-09-30T07:28:41.471Z,13.00
2017-09-30T07:31:08.948Z,12.70
2017-09-30T07:33:36.422Z,12.60
2017-09-30T07:36:03.923Z,12.60
2017-09-30T07:38:32.200Z,12.50
2017-09-30T07:41:00.457Z,12.50
2017-09-30T07:43:27.963Z,12.40
2017-09-30T07:45:55.470Z,12.50
2017-09-30T07:48:22.954Z,12.50
2017-09-30T07:50:51.207Z,12.60
2017-09-30T07:53:18.707Z,12.60
2017-09-30T07:55:46.211Z,12.70
2017-09-30T07:58:13.715Z,12.70
2017-09-30T08:00:42.002Z,12.80
2017-09-30T08:03:09.519Z,12.80
2017-09-30T08:05:37.031Z,12.90
2017-09-30T08:08:04.560Z,12.90
2017-09-30T08:10:32.800Z,13.00
2017-09-30T08:13:00.290Z,13.00
2017-09-30T08:15:27.795Z,13.00
2017-09-30T08:17:55.312Z,13.10
2017-09-30T08:20:22.840Z,13.10
2017-09-30T08:22:50.361Z,13.10
2017-09-30T08:25:17.836Z,13.20
2017-09-30T08:27:45.349Z,13.20
2017-09-30T08:30:14.345Z,13.40
2017-09-30T08:32:48.053Z,13.30
2017-09-30T08:35:16.328Z,13.30
2017-09-30T08:37:44.613Z,13.30
2017-09-30T08:40:12.839Z,13.40
2017-09-30T08:42:40.371Z,13.40
2017-09-30T08:45:07.852Z,13.50
2017-09-30T08:47:35.351Z,13.50
2017-09-30T08:50:03.606Z,13.50
2017-09-30T08:52:31.079Z,13.50
2017-09-30T08:55:00.119Z,13.70
2017-09-30T08:57:27.610Z,13.70
2017-09-30T08:59:55.086Z,13.60
2017-09-30T09:02:22.576Z,13.60
2017-09-30T09:04:50.823Z,13.70
2017-09-30T09:07:18.384Z,13.70
2017-09-30T09:09:45.934Z,13.70
2017-09-30T09:12:13.490Z,13.60
2017-09-30T09:14:40.958Z,13.70
2017-09-30T09:17:09.198Z,13.90
2017-09-30T09:19:37.723Z,13.80
2017-09-30T09:22:05.571Z,13.90
2017-09-30T09:24:33.901Z,14.10
2017-09-30T09:27:02.150Z,14.20
2017-09-30T09:29:30.430Z,14.30
2017-09-30T09:31:57.947Z,14.30
2017-09-30T09:34:25.429Z,14.30
2017-09-30T09:36:52.927Z,14.40
2017-09-30T09:39:20.430Z,14.20
2017-09-30T09:41:47.949Z,14.30
2017-09-30T09:44:17.523Z,14.50
2017-09-30T09:46:45.353Z,14.60
2017-09-30T09:49:12.836Z,14.70
2017-09-30T09:51:40.442Z,14.60
2017-09-30T09:54:08.691Z,14.80
2017-09-30T09:56:36.185Z,14.80
2017-09-30T09:59:03.690Z,14.90
2017-09-30T10:01:31.248Z,14.90
2017-09-30T10:03:59.288Z,14.90
2017-09-30T10:06:26.780Z,14.80
2017-09-30T10:08:54.240Z,14.90
2017-09-30T10:11:21.788Z,15.10
2017-09-30T10:13:49.258Z,15.20
2017-09-30T10:16:16.794Z,15.50
2017-09-30T10:18:44.315Z,15.80
2017-09-30T10:21:12.612Z,15.90
2017-09-30T10:23:40.104Z,15.80
2017-09-30T10:26:08.735Z,15.90
2017-09-30T10:28:37.006Z,16.10
2017-09-30T10:31:05.250Z,16.20
2017-09-30T10:33:33.299Z,16.20
2017-09-30T10:36:00.800Z,16.30
2017-09-30T10:38:28.290Z,16.40
2017-09-30T10:40:55.818Z,16.80
2017-09-30T10:43:23.347Z,16.60
2017-09-30T10:45:50.842Z,16.60
2017-09-30T10:48:18.311Z,16.90
2017-09-30T10:50:46.576Z,17.20
2017-09-30T10:53:14.812Z,17.30
2017-09-30T10:55:42.316Z,17.30
2017-09-30T10:58:10.542Z,17.60
2017-09-30T11:00:38.042Z,17.60
2017-09-30T11:03:05.552Z,17.60
2017-09-30T11:05:33.057Z,17.50
2017-09-30T11:08:02.618Z,17.50
2017-09-30T11:10:30.799Z,17.50
2017-09-30T11:12:58.299Z,17.50
2017-09-30T11:15:25.801Z,17.50
2017-09-30T11:17:53.273Z,17.60
2017-09-30T11:20:20.782Z,17.70
2017-09-30T11:22:48.259Z,17.80
2017-09-30T11:25:15.750Z,17.90
2017-09-30T11:27:43.287Z,17.90
2017-09-30T11:30:10.784Z,17.80
2017-09-30T11:32:38.271Z,17.80
2017-09-30T11:35:05.768Z,17.70
2017-09-30T11:37:33.274Z,17.80
2017-09-30T11:40:00.771Z,17.90
2017-09-30T11:42:29.125Z,17.90
2017-09-30T11:44:56.659Z,17.80
2017-09-30T11:47:24.142Z,17.80
2017-09-30T11:49:51.662Z,17.80
2017-09-30T11:52:19.148Z,17.80
2017-09-30T11:54:46.639Z,17.90
2017-09-30T11:57:14.894Z,18.00
2017-09-30T11:59:42.370Z,18.00
2017-09-30T12:02:10.650Z,18.40
2017-09-30T12:04:38.887Z,18.50
2017-09-30T12:07:06.409Z,18.50
2017-09-30T12:09:33.930Z,18.60
2017-09-30T12:12:02.228Z,18.60
2017-09-30T12:14:30.628Z,18.80
2017-09-30T12:16:58.131Z,18.80
2017-09-30T12:19:29.493Z,18.90
2017-09-30T12:21:56.971Z,18.90
2017-09-30T12:24:25.274Z,19.00
2017-09-30T12:26:53.144Z,19.00
2017-09-30T12:29:20.679Z,19.00
2017-09-30T12:31:48.923Z,19.50
2017-09-30T12:34:16.417Z,19.40
2017-09-30T12:36:44.676Z,19.40
2017-09-30T12:39:12.948Z,19.40
2017-09-30T12:41:40.518Z,19.40
2017-09-30T12:44:08.043Z,19.60
2017-09-30T12:46:35.578Z,19.70
2017-09-30T12:49:03.179Z,19.60
2017-09-30T12:51:30.675Z,19.70
2017-09-30T12:53:58.199Z,19.60
2017-09-30T12:56:25.743Z,19.60
2017-09-30T12:58:53.227Z,19.60
2017-09-30T13:01:20.727Z,19.60
2017-09-30T13:03:48.401Z,19.50
2017-09-30T13:06:15.875Z,19.30
2017-09-30T13:08:43.376Z,19.20
2017-09-30T13:11:12.234Z,19.50
2017-09-30T13:13:39.812Z,19.50
2017-09-30T13:16:07.341Z,19.70
2017-09-30T13:18:34.905Z,19.90
2017-09-30T13:21:02.398Z,20.10
2017-09-30T13:23:30.014Z,20.20
2017-09-30T13:25:57.555Z,20.00
2017-09-30T13:28:25.095Z,20.00
2017-09-30T13:30:53.441Z,20.00
2017-09-30T13:33:21.751Z,19.80
2017-09-30T13:35:50.031Z,19.60
2017-09-30T13:38:17.559Z,19.50
2017-09-30T13:40:45.044Z,19.30
2017-09-30T13:43:13.319Z,19.10
2017-09-30T13:45:41.570Z,19.10
2017-09-30T13:48:09.073Z,19.10
2017-09-30T13:50:36.558Z,19.10
2017-09-30T13:53:04.056Z,19.00
2017-09-30T13:55:31.546Z,19.10
2017-09-30T13:57:58.999Z,19.10
2017-09-30T14:00:26.535Z,19.10
2017-09-30T14:02:54.766Z,19.20
2017-09-30T14:05:23.057Z,19.10
2017-09-30T14:07:50.587Z,19.10
2017-09-30T14:10:18.120Z,19.00
2017-09-30T14:12:46.407Z,19.00
2017-09-30T14:15:13.920Z,19.00
2017-09-30T14:17:41.491Z,19.10
2017-09-30T14:20:09.007Z,19.10
2017-09-30T14:22:36.503Z,19.10
2017-09-30T14:25:04.020Z,19.10
2017-09-30T14:27:31.487Z,19.20
2017-09-30T14:29:58.988Z,19.30
2017-09-30T14:32:26.526Z,19.20
2017-09-30T14:34:54.044Z,19.10
2017-09-30T14:37:21.510Z,19.00
2017-09-30T14:39:49.058Z,19.00
2017-09-30T14:42:18.797Z,18.80
2017-09-30T14:44:46.309Z,18.80
2017-09-30T14:47:14.594Z,18.70
2017-09-30T14:49:42.117Z,18.70
2017-09-30T14:52:09.605Z,18.60
2017-09-30T14:54:37.984Z,18.60
2017-09-30T14:57:06.259Z,18.50
2017-09-30T14:59:34.536Z,18.50
2017-09-30T15:02:02.822Z,18.50
2017-09-30T15:04:35.456Z,18.50
2017-09-30T15:07:02.965Z,18.50
2017-09-30T15:09:31.244Z,18.40
2017-09-30T15:11:58.738Z,18.40
2017-09-30T15:14:26.215Z,18.30
2017-09-30T15:16:54.252Z,18.30
2017-09-30T15:19:21.770Z,18.20
2017-09-30T15:21:49.257Z,18.10
2017-09-30T15:24:16.770Z,18.00
2017-09-30T15:26:44.296Z,18.10
2017-09-30T15:29:11.811Z,18.20
2017-09-30T15:31:40.119Z,18.40
2017-09-30T15:34:07.608Z,18.30
2017-09-30T15:36:35.102Z,18.40
2017-09-30T15:39:03.412Z,18.40
2017-09-30T15:41:30.910Z,18.40
2017-09-30T15:43:58.423Z,18.40
2017-09-30T15:46:25.956Z,18.30
2017-09-30T15:48:53.471Z,18.20
2017-09-30T15:51:20.968Z,18.10
2017-09-30T15:53:48.555Z,18.00
2017-09-30T15:56:16.043Z,17.90
2017-09-30T15:58:43.589Z,17.80
2017-09-30T16:01:11.075Z,17.70
2017-09-30T16:03:38.581Z,17.70
2017-09-30T16:06:06.878Z,17.50
2017-09-30T16:08:34.346Z,17.50
2017-09-30T16:11:01.889Z,17.40
2017-09-30T16:13:30.182Z,17.30
2017-09-30T16:15:57.688Z,17.30
2017-09-30T16:18:26.137Z,17.20
2017-09-30T16:20:53.623Z,17.10
2017-09-30T16:23:21.130Z,17.00
2017-09-30T16:25:49.358Z,17.00
2017-09-30T16:28:16.850Z,16.90
2017-09-30T16:30:45.122Z,16.80
2017-09-30T16:33:13.535Z,16.80
2017-09-30T16:35:41.021Z,16.80
2017-09-30T16:38:08.495Z,16.60
2017-09-30T16:40:35.990Z,16.60
2017-09-30T16:43:03.518Z,16.60
2017-09-30T16:45:31.035Z,16.40
2017-09-30T16:47:58.507Z,16.20
2017-09-30T16:50:26.016Z,15.80
2017-09-30T16:52:54.294Z,15.00
2017-09-30T16:55:22.520Z,14.80
2017-09-30T16:57:50.002Z,14.80
2017-09-30T17:00:17.513Z,14.70
2017-09-30T17:02:45.007Z,14.60
2017-09-30T17:05:12.538Z,14.70
2017-09-30T17:07:40.022Z,14.70
2017-09-30T17:10:07.569Z,14.80
2017-09-30T17:12:35.072Z,14.80
2017-09-30T17:15:02.590Z,14.90
2017-09-30T17:17:30.072Z,14.90
2017-09-30T17:19:59.058Z,14.90
2017-09-30T17:22:26.560Z,14.90
2017-09-30T17:24:54.816Z,15.00
2017-09-30T17:27:22.327Z,15.00
2017-09-30T17:29:53.085Z,15.00
2017-09-30T17:32:20.611Z,15.00
2017-09-30T17:34:48.107Z,15.00
2017-09-30T17:37:15.591Z,15.00
2017-09-30T17:39:43.875Z,15.00
2017-09-30T17:42:12.531Z,15.00
2017-09-30T17:44:41.406Z,15.00
2017-09-30T17:47:09.823Z,15.00
2017-09-30T17:49:37.679Z,15.10
2017-09-30T17:52:05.173Z,15.00
2017-09-30T17:54:32.655Z,15.00
2017-09-30T17:57:00.211Z,14.90
2017-09-30T17:59:27.736Z,14.90
2017-09-30T18:01:56.027Z,14.70
2017-09-30T18:04:24.262Z,14.70
2017-09-30T18:06:51.742Z,14.60
2017-09-30T18:09:20.018Z,14.60
2017-09-30T18:11:47.515Z,14.60
2017-09-30T18:14:14.995Z,14.50
2017-09-30T18:16:44.160Z,14.20
2017-09-30T18:19:11.634Z,14.20
2017-09-30T18:21:39.189Z,14.10
2017-09-30T18:24:06.681Z,14.00
2017-09-30T18:26:34.222Z,13.80
2017-09-30T18:29:01.731Z,13.60
2017-09-30T18:31:30.937Z,13.30
2017-09-30T18:34:00.496Z,13.20
2017-09-30T18:36:28.049Z,13.20
2017-09-30T18:38:55.563Z,13.20
2017-09-30T18:41:23.803Z,13.10
2017-09-30T18:43:51.331Z,13.10
2017-09-30T18:46:18.800Z,13.10
2017-09-30T18:48:46.271Z,13.00
2017-09-30T18:51:13.778Z,12.90
2017-09-30T18:53:42.015Z,12.70
2017-09-30T18:56:09.512Z,12.70
2017-09-30T18:58:37.782Z,12.50
2017-09-30T19:01:06.075Z,12.50
2017-09-30T19:03:33.551Z,12.40
2017-09-30T19:06:01.846Z,12.40
2017-09-30T19:08:29.349Z,12.20
2017-09-30T19:10:57.626Z,12.10
2017-09-30T19:13:25.141Z,12.10
2017-09-30T19:15:52.598Z,12.10
2017-09-30T19:18:20.129Z,11.90
2017-09-30T19:20:47.620Z,11.90
2017-09-30T19:23:15.139Z,11.80
2017-09-30T19:25:42.619Z,11.90
2017-09-30T19:28:10.119Z,11.80
2017-09-30T19:30:38.443Z,11.80
2017-09-30T19:33:05.910Z,11.70
2017-09-30T19:35:33.421Z,11.80
2017-09-30T19:38:00.893Z,11.60
2017-09-30T19:40:29.153Z,11.70
2017-09-30T19:42:56.643Z,11.70
2017-09-30T19:45:24.128Z,11.70
2017-09-30T19:47:51.684Z,11.70
2017-09-30T19:50:19.167Z,11.70
2017-09-30T19:52:46.668Z,11.80
2017-09-30T19:55:14.908Z,11.80
2017-09-30T19:57:43.366Z,11.70
2017-09-30T20:00:10.875Z,11.80
2017-09-30T20:02:39.171Z,11.70
2017-09-30T20:05:07.442Z,11.60
2017-09-30T20:07:35.691Z,11.50
2017-09-30T20:10:03.250Z,11.50
2017-09-30T20:12:30.756Z,11.50
2017-09-30T20:14:58.342Z,11.50
2017-09-30T20:17:25.847Z,11.60
2017-09-30T20:19:54.080Z,11.50
2017-09-30T20:22:21.579Z,11.50
2017-09-30T20:24:50.034Z,11.50
2017-09-30T20:27:17.721Z,11.50
2017-09-30T20:29:45.589Z,11.50
2017-09-30T20:32:13.064Z,11.50
2017-09-30T20:34:41.345Z,11.50
2017-09-30T20:37:09.563Z,11.50
2017-09-30T20:39:37.617Z,11.50
2017-09-30T20:42:05.080Z,11.40
2017-09-30T20:44:32.634Z,11.40
2017-09-30T20:47:00.164Z,11.40
2017-09-30T20:49:28.402Z,11.40
2017-09-30T20:51:55.912Z,11.40
2017-09-30T20:54:24.144Z,11.40
2017-09-30T20:56:51.639Z,11.40
2017-09-30T20:59:19.926Z,11.40
2017-09-30T21:01:47.410Z,11.40
2017-09-30T21:04:14.918Z,11.40
2017-09-30T21:06:42.400Z,11.40
2017-09-30T21:09:12.030Z,11.40
2017-09-30T21:11:39.526Z,11.30
2017-09-30T21:14:07.057Z,11.30
2017-09-30T21:16:34.560Z,11.30
2017-09-30T21:19:02.027Z,11.30
2017-09-30T21:21:30.297Z,11.20
2017-09-30T21:23:57.773Z,11.20
2017-09-30T21:26:26.067Z,11.10
2017-09-30T21:28:53.550Z,11.10
2017-09-30T21:31:21.043Z,11.10
2017-09-30T21:33:48.571Z,11.00
2017-09-30T21:36:16.068Z,11.10
2017-09-30T21:38:43.567Z,11.10
2017-09-30T21:41:11.048Z,11.10
2017-09-30T21:43:38.558Z,11.10
2017-09-30T21:46:06.819Z,11.00
2017-09-30T21:48:35.212Z,11.00
2017-09-30T21:51:03.487Z,11.00
2017-09-30T21:53:31.720Z,11.00
2017-09-30T21:55:59.221Z,11.00
2017-09-30T21:58:27.497Z,10.90
2017-09-30T22:00:55.742Z,10.90
2017-09-30T22:03:23.232Z,10.90
2017-09-30T22:05:51.487Z,10.80
2017-09-30T22:08:18.990Z,10.80
2017-09-30T22:10:46.475Z,10.80
2017-09-30T22:13:13.933Z,10.80
2017-09-30T22:15:41.443Z,10.80
2017-09-30T22:18:09.676Z,10.80
2017-09-30T22:20:37.198Z,10.80
